createdAt,value
2023-02-03T00:01:36.287Z,4.51
2023-02-03T00:04:03.088Z,4.30
2023-02-03T00:06:31.738Z,4.32
2023-02-03T00:09:00.914Z,4.64
2023-02-03T00:11:30.458Z,4.58
2023-02-03T00:13:57.427Z,4.64
2023-02-03T00:16:24.470Z,4.51
2023-02-03T00:18:51.535Z,4.65
2023-02-03T00:21:18.309Z,4.50
2023-02-03T00:23:45.054Z,4.67
2023-02-03T00:26:14.746Z,4.61
2023-02-03T00:28:43.316Z,4.59
2023-02-03T00:31:18.682Z,4.58
2023-02-03T00:33:46.549Z,4.76
2023-02-03T00:36:13.597Z,4.70
2023-02-03T00:38:40.429Z,4.30
2023-02-03T00:41:07.933Z,4.67
2023-02-03T00:43:34.696Z,4.45
2023-02-03T00:46:01.528Z,4.73
2023-02-03T00:48:28.236Z,4.76
2023-02-03T00:50:54.970Z,4.73
2023-02-03T00:53:21.708Z,4.46
2023-02-03T00:55:48.393Z,4.71
2023-02-03T00:58:15.164Z,4.41
2023-02-03T01:00:41.869Z,4.78
2023-02-03T01:03:08.666Z,4.84
2023-02-03T01:05:35.362Z,4.75
2023-02-03T01:08:02.155Z,4.64
2023-02-03T01:10:29.988Z,4.78
2023-02-03T01:12:56.989Z,4.40
2023-02-03T01:15:23.699Z,4.68
2023-02-03T01:17:50.389Z,4.49
2023-02-03T01:20:17.935Z,4.39
2023-02-03T01:22:44.636Z,4.37
2023-02-03T01:25:11.297Z,4.71
2023-02-03T01:27:38.087Z,4.68
2023-02-03T01:30:05.190Z,4.80
2023-02-03T01:32:31.916Z,4.63
2023-02-03T01:34:58.634Z,4.39
2023-02-03T01:37:25.338Z,4.66
2023-02-03T01:39:54.187Z,4.69
2023-02-03T01:42:20.835Z,4.59
2023-02-03T01:44:53.038Z,4.77
2023-02-03T01:47:22.781Z,4.76
2023-02-03T01:49:58.013Z,4.54
2023-02-03T01:52:25.819Z,4.67
2023-02-03T01:54:55.603Z,4.56
2023-02-03T01:57:27.298Z,4.59
2023-02-03T01:59:58.629Z,4.30
2023-02-03T02:02:27.606Z,4.60
2023-02-03T02:05:06.190Z,4.46
2023-02-03T02:07:34.520Z,4.81
2023-02-03T02:10:02.602Z,4.72
2023-02-03T02:12:29.231Z,4.65
2023-02-03T02:14:57.978Z,4.82
2023-02-03T02:18:07.396Z,4.78
2023-02-03T02:21:11.901Z,4.89
2023-02-03T02:24:00.390Z,4.87
2023-02-03T02:27:04.980Z,4.91
2023-02-03T02:30:12.059Z,4.88
2023-02-03T02:33:03.038Z,4.92
2023-02-03T02:35:48.206Z,4.83
2023-02-03T02:38:34.991Z,4.76
2023-02-03T02:41:07.901Z,4.90
2023-02-03T02:43:42.933Z,4.71
2023-02-03T02:46:14.742Z,4.70
2023-02-03T02:48:57.339Z,4.82
2023-02-03T02:51:24.564Z,4.55
2023-02-03T02:54:02.870Z,4.66
2023-02-03T02:56:32.614Z,4.88
2023-02-03T02:59:02.282Z,4.90
2023-02-03T03:01:29.111Z,4.80
2023-02-03T03:03:58.075Z,4.65
2023-02-03T03:07:02.041Z,4.90
2023-02-03T03:10:05.759Z,4.84
2023-02-03T03:12:36.325Z,4.72
2023-02-03T03:15:08.086Z,4.89
2023-02-03T03:17:42.646Z,4.72
2023-02-03T03:20:15.607Z,4.94
2023-02-03T03:22:48.014Z,4.94
2023-02-03T03:25:18.213Z,4.57
2023-02-03T03:27:58.720Z,4.77
2023-02-03T03:30:37.524Z,5.01
2023-02-03T03:33:05.813Z,5.00
2023-02-03T03:35:41.611Z,4.89
2023-02-03T03:38:43.627Z,4.97
2023-02-03T03:41:19.812Z,4.73
2023-02-03T03:43:48.209Z,4.98
2023-02-03T03:46:23.548Z,4.76
2023-02-03T03:48:55.024Z,4.87
2023-02-03T03:51:30.662Z,4.95
2023-02-03T03:54:03.626Z,4.93
2023-02-03T03:56:46.665Z,4.89
2023-02-03T03:59:16.938Z,4.91
2023-02-03T04:01:44.143Z,4.76
2023-02-03T04:04:11.924Z,4.61
2023-02-03T04:06:39.783Z,4.61
2023-02-03T04:09:07.219Z,4.89
2023-02-03T04:11:52.778Z,4.87
2023-02-03T04:14:19.500Z,4.79
2023-02-03T04:16:46.172Z,4.80
2023-02-03T04:19:12.844Z,4.64
2023-02-03T04:21:39.461Z,4.77
2023-02-03T04:24:06.489Z,4.93
2023-02-03T04:26:33.220Z,4.80
2023-02-03T04:28:59.895Z,4.93
2023-02-03T04:31:26.602Z,4.89
2023-02-03T04:33:53.277Z,4.98
2023-02-03T04:36:19.891Z,4.89
2023-02-03T04:38:48.841Z,5.01
2023-02-03T04:41:16.114Z,4.97
2023-02-03T04:43:42.964Z,4.67
2023-02-03T04:46:10.550Z,4.80
2023-02-03T04:48:37.446Z,5.00
2023-02-03T04:51:06.490Z,4.99
2023-02-03T04:53:36.819Z,5.03
2023-02-03T04:56:08.390Z,4.70
2023-02-03T04:58:37.111Z,4.80
2023-02-03T05:01:09.140Z,4.92
2023-02-03T05:03:36.608Z,4.91
2023-02-03T05:06:03.505Z,4.76
2023-02-03T05:08:30.736Z,4.75
2023-02-03T05:10:58.370Z,4.82
2023-02-03T05:13:25.494Z,4.69
2023-02-03T05:15:52.200Z,4.66
2023-02-03T05:18:18.848Z,4.91
2023-02-03T05:20:45.697Z,4.92
2023-02-03T05:23:12.344Z,4.79
2023-02-03T05:25:39.040Z,4.65
2023-02-03T05:28:05.815Z,4.71
2023-02-03T05:30:32.517Z,4.55
2023-02-03T05:32:59.109Z,4.80
2023-02-03T05:35:25.869Z,4.67
2023-02-03T05:37:52.532Z,4.47
2023-02-03T05:40:38.113Z,4.59
2023-02-03T05:43:04.830Z,4.54
2023-02-03T05:45:31.909Z,4.75
2023-02-03T05:47:58.597Z,4.75
2023-02-03T05:50:27.201Z,4.62
2023-02-03T05:53:07.969Z,4.74
2023-02-03T05:55:35.108Z,4.74
2023-02-03T05:58:01.842Z,4.72
2023-02-03T06:00:29.430Z,4.76
2023-02-03T06:03:02.501Z,4.79
2023-02-03T06:05:31.330Z,4.69
2023-02-03T06:07:58.580Z,4.78
2023-02-03T06:10:26.369Z,4.74
2023-02-03T06:12:53.476Z,4.63
2023-02-03T06:15:20.496Z,4.65
2023-02-03T06:17:53.364Z,4.93
2023-02-03T06:20:20.665Z,4.93
2023-02-03T06:22:47.515Z,5.02
2023-02-03T06:25:14.495Z,5.02
2023-02-03T06:27:41.418Z,5.06
2023-02-03T06:30:09.138Z,5.07
2023-02-03T06:32:36.141Z,4.96
2023-02-03T06:35:02.939Z,4.99
2023-02-03T06:37:29.637Z,4.96
2023-02-03T06:39:56.551Z,4.90
2023-02-03T06:42:23.367Z,4.87
2023-02-03T06:44:50.259Z,4.80
2023-02-03T06:47:16.932Z,4.89
2023-02-03T06:49:43.729Z,4.86
2023-02-03T06:52:10.750Z,4.85
2023-02-03T06:54:37.420Z,4.87
2023-02-03T06:57:04.316Z,4.84
2023-02-03T06:59:31.044Z,4.89
2023-02-03T07:01:58.023Z,4.63
2023-02-03T07:04:24.747Z,4.87
2023-02-03T07:06:51.435Z,4.87
2023-02-03T07:09:18.353Z,4.90
2023-02-03T07:11:45.203Z,4.88
2023-02-03T07:14:11.915Z,4.86
2023-02-03T07:16:38.638Z,4.93
2023-02-03T07:19:06.224Z,4.89
2023-02-03T07:21:32.918Z,4.86
2023-02-03T07:23:59.624Z,4.90
2023-02-03T07:26:26.690Z,4.91
2023-02-03T07:28:54.338Z,4.84
2023-02-03T07:31:21.242Z,4.83
2023-02-03T07:33:48.231Z,4.82
2023-02-03T07:36:14.957Z,4.88
2023-02-03T07:38:41.752Z,4.90
2023-02-03T07:41:08.613Z,4.91
2023-02-03T07:43:36.876Z,4.84
2023-02-03T07:46:05.750Z,4.99
2023-02-03T07:48:32.575Z,4.97
2023-02-03T07:50:59.318Z,5.02
2023-02-03T07:53:26.559Z,5.08
2023-02-03T07:55:53.480Z,5.05
2023-02-03T07:58:20.306Z,5.13
2023-02-03T08:00:47.020Z,5.32
2023-02-03T08:03:13.768Z,5.29
2023-02-03T08:05:40.510Z,5.29
2023-02-03T08:08:07.344Z,5.31
2023-02-03T08:10:34.023Z,5.27
2023-02-03T08:13:00.710Z,5.24
2023-02-03T08:15:27.563Z,5.30
2023-02-03T08:17:54.303Z,5.26
2023-02-03T08:20:21.417Z,5.27
2023-02-03T08:22:48.101Z,5.31
2023-02-03T08:25:14.811Z,5.39
2023-02-03T08:27:42.104Z,5.39
2023-02-03T08:30:11.577Z,5.45
2023-02-03T08:32:38.451Z,5.45
2023-02-03T08:35:06.304Z,5.49
2023-02-03T08:37:33.181Z,5.51
2023-02-03T08:40:00.313Z,5.50
2023-02-03T08:42:27.441Z,5.54
2023-02-03T08:44:54.156Z,5.52
2023-02-03T08:47:20.966Z,5.46
2023-02-03T08:49:48.235Z,5.56
2023-02-03T08:52:18.035Z,5.58
2023-02-03T08:54:46.598Z,5.55
2023-02-03T08:57:13.696Z,5.58
2023-02-03T08:59:41.830Z,5.57
2023-02-03T09:02:14.478Z,5.59
2023-02-03T09:04:41.301Z,5.60
2023-02-03T09:07:08.056Z,5.60
2023-02-03T09:09:34.790Z,5.66
2023-02-03T09:12:02.565Z,5.61
2023-02-03T09:14:30.404Z,5.63
2023-02-03T09:16:57.273Z,5.71
2023-02-03T09:19:24.201Z,5.74
2023-02-03T09:21:51.561Z,5.74
2023-02-03T09:24:19.227Z,5.74
2023-02-03T09:26:45.932Z,5.81
2023-02-03T09:29:12.836Z,5.85
2023-02-03T09:31:39.632Z,5.82
2023-02-03T09:34:06.359Z,5.87
2023-02-03T09:36:33.195Z,5.89
2023-02-03T09:38:59.917Z,5.92
2023-02-03T09:42:01.330Z,5.93
2023-02-03T09:44:50.086Z,5.92
2023-02-03T09:47:22.955Z,5.99
2023-02-03T09:50:00.821Z,5.98
2023-02-03T09:52:32.498Z,5.97
2023-02-03T09:55:05.156Z,6.05
2023-02-03T09:57:37.312Z,6.01
2023-02-03T10:00:26.558Z,6.08
2023-02-03T10:03:06.460Z,6.07
2023-02-03T10:05:43.324Z,6.14
2023-02-03T10:08:19.311Z,6.12
2023-02-03T10:11:09.943Z,6.17
2023-02-03T10:13:44.323Z,6.15
2023-02-03T10:16:33.149Z,6.17
2023-02-03T10:19:04.300Z,6.20
2023-02-03T10:21:58.781Z,6.14
2023-02-03T10:24:43.375Z,6.16
2023-02-03T10:27:19.781Z,6.19
2023-02-03T10:29:54.581Z,6.24
2023-02-03T10:32:21.587Z,6.27
2023-02-03T10:34:49.514Z,6.20
2023-02-03T10:37:27.073Z,6.34
2023-02-03T10:39:56.918Z,6.34
2023-02-03T10:42:24.075Z,6.38
2023-02-03T10:44:59.659Z,6.38
2023-02-03T10:47:29.749Z,6.40
2023-02-03T10:49:58.504Z,6.37
2023-02-03T10:52:26.844Z,6.34
2023-02-03T10:54:53.957Z,6.45
2023-02-03T10:57:20.784Z,6.44
2023-02-03T10:59:48.717Z,6.50
2023-02-03T11:02:28.940Z,6.42
2023-02-03T11:05:17.483Z,6.50
2023-02-03T11:07:45.058Z,6.53
2023-02-03T11:10:41.115Z,6.55
2023-02-03T11:13:13.905Z,6.52
2023-02-03T11:16:05.000Z,6.47
2023-02-03T11:19:00.289Z,6.52
2023-02-03T11:21:31.717Z,6.48
2023-02-03T11:24:20.093Z,6.55
2023-02-03T11:26:59.503Z,6.57
2023-02-03T11:29:32.338Z,6.56
2023-02-03T11:32:03.226Z,6.62
2023-02-03T11:34:34.597Z,6.66
2023-02-03T11:37:36.253Z,6.68
2023-02-03T11:40:08.999Z,6.69
2023-02-03T11:42:38.780Z,6.71
2023-02-03T11:45:30.029Z,6.73
2023-02-03T11:48:01.748Z,6.73
2023-02-03T11:50:41.347Z,6.73
2023-02-03T11:53:29.219Z,6.83
2023-02-03T12:00:17.046Z,6.91
2023-02-03T12:02:46.896Z,6.93
2023-02-03T12:06:03.214Z,6.97
2023-02-03T12:08:56.232Z,6.90
2023-02-03T12:11:49.163Z,6.91
2023-02-03T12:14:35.693Z,6.86
2023-02-03T12:17:12.185Z,6.86
2023-02-03T12:20:03.144Z,6.89
2023-02-03T12:22:45.044Z,6.90
2023-02-03T12:25:41.326Z,6.83
2023-02-03T12:28:23.723Z,6.90
2023-02-03T12:31:09.013Z,6.84
2023-02-03T12:33:44.917Z,6.82
2023-02-03T12:36:18.771Z,6.89
2023-02-03T12:38:53.428Z,6.89
2023-02-03T12:41:30.774Z,6.87
2023-02-03T12:44:16.403Z,6.88
2023-02-03T12:46:50.574Z,6.90
2023-02-03T12:49:33.437Z,6.86
2023-02-03T12:52:05.610Z,6.75
2023-02-03T12:54:41.361Z,6.87
2023-02-03T12:57:18.780Z,6.89
2023-02-03T12:59:57.563Z,6.81
2023-02-03T13:02:29.657Z,6.82
2023-02-03T13:05:10.599Z,6.83
2023-02-03T13:07:44.779Z,6.80
2023-02-03T13:10:41.996Z,6.76
2023-02-03T13:13:14.488Z,6.76
2023-02-03T13:15:46.115Z,6.79
2023-02-03T13:18:28.323Z,6.82
2023-02-03T13:20:55.993Z,6.80
2023-02-03T13:23:24.041Z,6.77
2023-02-03T13:26:00.915Z,6.74
2023-02-03T13:29:04.961Z,6.72
2023-02-03T13:31:59.894Z,6.65
2023-02-03T13:34:37.977Z,6.69
2023-02-03T13:37:25.697Z,6.67
2023-02-03T13:40:26.208Z,6.70
2023-02-03T13:42:58.555Z,6.68
2023-02-03T13:45:32.749Z,6.62
2023-02-03T13:48:24.706Z,6.65
2023-02-03T13:51:22.499Z,6.65
2023-02-03T13:53:51.078Z,6.68
2023-02-03T13:56:22.160Z,6.68
2023-02-03T13:59:02.944Z,6.65
2023-02-03T14:01:34.068Z,6.64
2023-02-03T14:04:06.663Z,6.66
2023-02-03T14:06:36.364Z,6.67
2023-02-03T14:09:20.063Z,6.66
2023-02-03T14:11:49.321Z,6.61
2023-02-03T14:14:15.958Z,6.57
2023-02-03T14:16:48.157Z,6.59
2023-02-03T14:19:30.263Z,6.63
2023-02-03T14:22:06.844Z,6.60
2023-02-03T14:24:39.188Z,6.66
2023-02-03T14:27:18.999Z,6.66
2023-02-03T14:29:46.178Z,6.72
2023-02-03T14:32:13.888Z,6.74
2023-02-03T14:34:41.849Z,6.67
2023-02-03T14:37:19.941Z,6.80
2023-02-03T14:40:07.177Z,6.81
2023-02-03T14:43:09.329Z,6.73
2023-02-03T14:45:59.863Z,6.67
2023-02-03T14:48:44.937Z,6.69
2023-02-03T14:51:32.529Z,6.68
2023-02-03T14:54:08.077Z,6.67
2023-02-03T14:57:18.795Z,6.61
2023-02-03T14:59:56.642Z,6.54
2023-02-03T15:02:27.974Z,6.55
2023-02-03T15:05:13.377Z,6.57
2023-02-03T15:07:50.971Z,6.55
2023-02-03T15:10:30.249Z,6.54
2023-02-03T15:12:58.585Z,6.58
2023-02-03T15:15:31.057Z,6.55
2023-02-03T15:18:00.755Z,6.59
2023-02-03T15:20:41.498Z,6.51
2023-02-03T15:23:25.081Z,6.61
2023-02-03T15:26:01.702Z,6.57
2023-02-03T15:28:30.573Z,6.52
2023-02-03T15:31:21.356Z,6.61
2023-02-03T15:33:50.845Z,6.55
2023-02-03T15:36:26.822Z,6.57
2023-02-03T15:39:12.406Z,6.57
2023-02-03T15:41:39.941Z,6.54
2023-02-03T15:44:13.797Z,6.43
2023-02-03T15:46:45.564Z,6.47
2023-02-03T15:49:29.730Z,6.43
2023-02-03T15:52:02.295Z,6.46
2023-02-03T15:54:40.994Z,6.39
2023-02-03T15:57:11.632Z,6.49
2023-02-03T15:59:46.453Z,6.44
2023-02-03T16:02:34.726Z,6.55
2023-02-03T16:05:26.052Z,6.54
2023-02-03T16:07:53.180Z,6.52
2023-02-03T16:10:30.544Z,6.49
2023-02-03T16:13:26.295Z,6.51
2023-02-03T16:16:17.519Z,6.49
2023-02-03T16:18:56.840Z,6.29
2023-02-03T16:21:33.962Z,6.45
2023-02-03T16:24:01.171Z,6.49
2023-02-03T16:26:30.308Z,6.45
2023-02-03T16:29:16.683Z,6.53
2023-02-03T16:32:04.456Z,6.52
2023-02-03T16:34:50.075Z,6.57
2023-02-03T16:37:49.099Z,6.56
2023-02-03T16:40:41.166Z,6.59
2023-02-03T16:43:32.087Z,6.57
2023-02-03T16:46:18.962Z,6.44
2023-02-03T16:49:04.297Z,6.47
2023-02-03T16:51:39.089Z,6.51
2023-02-03T16:54:06.065Z,6.47
2023-02-03T16:56:32.941Z,6.46
2023-02-03T16:58:59.659Z,6.49
2023-02-03T17:01:26.376Z,6.50
2023-02-03T17:03:53.149Z,6.48
2023-02-03T17:06:20.191Z,6.39
2023-02-03T17:08:46.879Z,6.34
2023-02-03T17:11:18.354Z,6.34
2023-02-03T17:13:46.113Z,6.34
2023-02-03T17:16:18.543Z,6.43
2023-02-03T17:18:48.755Z,6.38
2023-02-03T17:21:18.841Z,6.35
2023-02-03T17:23:45.484Z,6.31
2023-02-03T17:26:12.506Z,6.33
2023-02-03T17:28:40.792Z,6.32
2023-02-03T17:31:08.107Z,6.33
2023-02-03T17:33:36.435Z,6.23
2023-02-03T17:36:15.785Z,6.18
2023-02-03T17:54:52.933Z,6.16
2023-02-03T17:57:19.577Z,6.08
2023-02-03T17:59:47.374Z,6.02
2023-02-03T18:02:14.057Z,5.98
2023-02-03T18:04:42.455Z,6.09
2023-02-03T18:07:09.525Z,6.07
2023-02-03T18:09:36.599Z,6.07
2023-02-03T18:12:04.257Z,6.06
2023-02-03T18:14:31.110Z,6.15
2023-02-03T18:16:57.983Z,6.11
2023-02-03T18:19:25.249Z,6.07
2023-02-03T18:21:52.363Z,6.00
2023-02-03T18:24:22.589Z,5.94
2023-02-03T18:26:51.599Z,5.87
2023-02-03T18:29:19.173Z,5.90
2023-02-03T18:31:47.558Z,5.85
2023-02-03T18:34:16.781Z,5.92
2023-02-03T18:36:44.504Z,5.93
2023-02-03T18:39:12.753Z,5.91
2023-02-03T18:41:40.330Z,5.83
2023-02-03T18:44:07.494Z,5.86
2023-02-03T18:46:34.967Z,5.86
2023-02-03T18:49:02.074Z,5.62
2023-02-03T18:51:29.220Z,5.71
2023-02-03T18:54:00.422Z,5.64
2023-02-03T18:56:35.661Z,5.69
2023-02-03T18:59:08.983Z,5.74
2023-02-03T19:01:46.681Z,5.47
2023-02-03T19:04:14.314Z,5.58
2023-02-03T19:06:45.739Z,5.61
2023-02-03T19:09:16.204Z,5.63
2023-02-03T19:11:43.519Z,5.49
2023-02-03T19:14:13.928Z,5.66
2023-02-03T19:16:41.182Z,5.58
2023-02-03T19:19:08.368Z,5.44
2023-02-03T19:21:35.403Z,5.42
2023-02-03T19:24:02.284Z,5.31
2023-02-03T19:26:29.162Z,5.49
2023-02-03T19:28:56.184Z,5.35
2023-02-03T19:31:23.317Z,5.55
2023-02-03T19:33:50.201Z,5.49
2023-02-03T19:36:16.986Z,5.43
2023-02-03T19:38:43.926Z,5.49
2023-02-03T19:41:11.900Z,5.33
2023-02-03T19:43:40.265Z,5.50
2023-02-03T19:46:08.046Z,5.45
2023-02-03T19:48:34.967Z,5.27
2023-02-03T19:51:02.742Z,5.35
2023-02-03T19:53:29.601Z,5.35
2023-02-03T19:55:56.304Z,5.40
2023-02-03T19:58:24.185Z,5.27
2023-02-03T20:00:51.218Z,5.27
2023-02-03T20:03:19.928Z,5.24
2023-02-03T20:05:47.446Z,5.42
2023-02-03T20:08:15.768Z,5.54
2023-02-03T20:10:45.392Z,5.39
2023-02-03T20:13:13.228Z,5.71
2023-02-03T20:15:39.974Z,5.68
2023-02-03T20:18:07.945Z,5.57
2023-02-03T20:20:35.548Z,5.53
2023-02-03T20:23:03.464Z,5.57
2023-02-03T20:25:30.523Z,5.59
2023-02-03T20:28:05.446Z,5.62
2023-02-03T20:30:32.902Z,5.43
2023-02-03T20:33:04.873Z,5.41
2023-02-03T20:35:32.112Z,5.55
2023-02-03T20:37:59.133Z,5.39
2023-02-03T20:40:29.139Z,5.50
2023-02-03T20:42:57.785Z,5.61
2023-02-03T20:45:24.687Z,5.60
2023-02-03T20:47:52.189Z,5.65
2023-02-03T20:50:37.295Z,5.68
2023-02-03T20:53:13.760Z,5.46
2023-02-03T20:55:43.906Z,5.67
2023-02-03T20:58:24.354Z,5.46
2023-02-03T21:00:57.390Z,5.62
2023-02-03T21:03:43.892Z,5.54
2023-02-03T21:06:16.776Z,5.66
2023-02-03T21:08:45.457Z,5.66
2023-02-03T21:11:18.313Z,5.58
2023-02-03T21:13:47.039Z,5.52
2023-02-03T21:16:29.228Z,5.63
2023-02-03T21:19:00.477Z,5.61
2023-02-03T21:21:40.480Z,5.64
2023-02-03T21:24:22.528Z,5.71
2023-02-03T21:26:49.748Z,5.63
2023-02-03T21:29:31.656Z,5.45
2023-02-03T21:31:59.395Z,5.59
2023-02-03T21:34:27.831Z,5.64
2023-02-03T21:36:55.897Z,5.68
2023-02-03T21:39:28.397Z,5.68
2023-02-03T21:41:56.443Z,5.69
2023-02-03T21:44:36.222Z,5.71
2023-02-03T21:47:27.397Z,5.62
2023-02-03T21:49:54.561Z,5.42
2023-02-03T21:52:22.044Z,5.57
2023-02-03T21:54:50.049Z,5.64
2023-02-03T21:57:17.321Z,5.53
2023-02-03T21:59:47.088Z,5.57
2023-02-03T22:02:55.263Z,5.63
2023-02-03T22:05:22.279Z,5.41
2023-02-03T22:07:49.132Z,5.55
2023-02-03T22:10:16.348Z,5.61
2023-02-03T22:12:43.194Z,5.45
2023-02-03T22:15:10.444Z,5.57
2023-02-03T22:17:37.166Z,5.59
2023-02-03T22:20:04.145Z,5.54
2023-02-03T22:22:32.005Z,5.50
2023-02-03T22:24:58.662Z,5.43
2023-02-03T22:27:25.609Z,5.50
2023-02-03T22:29:57.935Z,5.45
2023-02-03T22:32:24.651Z,5.35
2023-02-03T22:34:51.794Z,5.50
2023-02-03T22:37:21.013Z,5.51
2023-02-03T22:39:47.708Z,5.49
2023-02-03T22:42:16.077Z,5.34
2023-02-03T22:44:43.053Z,5.38
2023-02-03T22:47:09.798Z,5.26
2023-02-03T22:49:36.522Z,5.29
2023-02-03T22:52:03.281Z,5.25
2023-02-03T22:54:30.037Z,5.22
2023-02-03T22:56:56.798Z,5.34
2023-02-03T22:59:23.625Z,5.24
2023-02-03T23:01:50.370Z,5.30
2023-02-03T23:04:17.488Z,5.26
2023-02-03T23:06:44.531Z,5.33
2023-02-03T23:09:11.268Z,5.25
2023-02-03T23:11:37.992Z,5.29
2023-02-03T23:14:04.699Z,5.32
2023-02-03T23:16:31.477Z,5.28
2023-02-03T23:18:58.234Z,5.19
2023-02-03T23:21:25.026Z,5.22
2023-02-03T23:23:51.768Z,5.23
2023-02-03T23:26:18.515Z,5.10
2023-02-03T23:28:45.289Z,5.19
2023-02-03T23:31:12.152Z,5.07
2023-02-03T23:33:38.895Z,5.17
2023-02-03T23:36:05.939Z,5.03
2023-02-03T23:38:33.614Z,5.07
2023-02-03T23:41:00.350Z,5.04
2023-02-03T23:43:27.229Z,5.04
2023-02-03T23:45:53.962Z,5.14
2023-02-03T23:48:20.700Z,4.99
2023-02-03T23:50:49.185Z,5.14
2023-02-03T23:53:15.960Z,5.07
2023-02-03T23:55:42.612Z,5.17
2023-02-03T23:58:09.455Z,5.21
